createdAt,value
2023-03-23T15:57:59.591Z,27.10
2023-03-23T16:00:30.026Z,27.45
2023-03-23T16:03:01.525Z,27.54
2023-03-23T16:05:28.811Z,27.85
2023-03-23T16:07:58.083Z,28.31
2023-03-23T16:10:26.560Z,28.56
2023-03-23T16:12:53.715Z,28.44
2023-03-23T16:15:21.442Z,29.41
2023-03-23T16:17:50.693Z,29.29
2023-03-23T16:20:20.591Z,30.28
2023-03-23T16:22:50.641Z,30.33
2023-03-23T16:25:18.975Z,29.99
2023-03-23T16:27:51.778Z,30.52
2023-03-23T16:30:24.179Z,30.88
2023-03-23T16:32:51.663Z,31.35
2023-03-23T16:35:19.450Z,31.19
2023-03-23T16:37:52.171Z,31.73
2023-03-23T16:40:37.449Z,31.70
2023-03-23T16:43:09.238Z,31.28
2023-03-23T16:45:42.418Z,31.31
2023-03-23T16:48:12.450Z,31.50
2023-03-23T16:50:39.970Z,31.98
2023-03-23T16:53:08.553Z,33.32
2023-03-23T16:55:37.289Z,33.94
2023-03-23T16:58:16.192Z,34.63
2023-03-23T17:00:50.334Z,34.93
2023-03-23T17:03:21.951Z,35.42
2023-03-23T17:05:53.057Z,36.00
2023-03-23T17:08:21.446Z,35.70
2023-03-23T17:10:48.843Z,37.32
2023-03-23T17:13:16.302Z,38.46
2023-03-23T17:15:46.660Z,39.57
2023-03-23T17:18:15.110Z,39.08
2023-03-23T17:20:43.230Z,37.80
2023-03-23T17:23:10.690Z,39.29
2023-03-23T17:25:37.718Z,41.19
2023-03-23T17:28:07.250Z,41.71
2023-03-23T17:30:34.651Z,39.42
2023-03-23T17:33:01.914Z,38.90
2023-03-23T17:35:28.928Z,38.59
2023-03-23T17:37:55.939Z,39.41
2023-03-23T17:40:23.236Z,39.21
2023-03-23T17:42:50.761Z,39.49
2023-03-23T17:45:20.454Z,39.26
2023-03-23T17:47:47.636Z,39.47
2023-03-23T17:50:16.766Z,38.96
2023-03-23T17:52:44.363Z,39.12
2023-03-23T17:55:13.532Z,38.99
2023-03-23T17:57:40.629Z,39.46
2023-03-23T18:00:08.983Z,39.67
2023-03-23T18:02:37.520Z,40.66
2023-03-23T18:05:06.590Z,40.64
2023-03-23T18:07:33.620Z,40.67
2023-03-23T18:10:01.237Z,40.93
2023-03-23T18:12:28.393Z,40.79
2023-03-23T18:14:59.195Z,41.24
2023-03-23T18:17:27.099Z,41.23
2023-03-23T18:19:55.021Z,41.12
2023-03-23T18:22:22.474Z,40.97
2023-03-23T18:24:50.180Z,41.23
2023-03-23T18:27:17.678Z,40.97
2023-03-23T18:29:44.831Z,41.33
2023-03-23T18:32:11.871Z,41.83
2023-03-23T18:34:43.884Z,41.29
2023-03-23T18:37:11.132Z,42.00
2023-03-23T18:39:40.728Z,43.64
2023-03-23T18:42:08.233Z,42.85
2023-03-23T18:44:35.486Z,42.70
2023-03-23T18:47:03.203Z,42.83
2023-03-23T18:49:30.628Z,42.98
2023-03-23T18:51:57.659Z,43.47
2023-03-23T18:54:24.885Z,43.90
2023-03-23T18:56:52.167Z,45.07
2023-03-23T18:59:21.276Z,44.90
2023-03-23T19:01:49.998Z,45.33
2023-03-23T19:04:17.845Z,44.67
2023-03-23T19:06:44.822Z,44.54
2023-03-23T19:09:11.794Z,46.18
2023-03-23T19:11:38.760Z,45.42
2023-03-23T19:14:07.999Z,44.29
2023-03-23T19:16:36.260Z,44.47
2023-03-23T19:19:05.464Z,43.68
2023-03-23T19:21:33.054Z,44.04
2023-03-23T19:24:01.844Z,44.27
2023-03-23T19:26:37.627Z,45.92
2023-03-23T19:29:24.666Z,46.02
2023-03-23T19:31:53.962Z,47.64
2023-03-23T19:34:22.197Z,48.19
2023-03-23T19:36:55.134Z,49.17
2023-03-23T19:39:30.282Z,49.29
2023-03-23T19:41:57.335Z,49.25
2023-03-23T19:44:25.141Z,50.48
2023-03-23T19:46:52.701Z,56.31
2023-03-23T19:51:47.091Z,56.66
2023-03-23T19:54:14.133Z,56.32
2023-03-23T19:56:41.650Z,54.09
2023-03-23T19:59:10.767Z,53.99
2023-03-23T20:01:38.040Z,52.29
2023-03-23T20:04:05.601Z,51.52
2023-03-23T20:06:34.764Z,50.90
2023-03-23T20:09:02.258Z,49.65
2023-03-23T20:11:32.298Z,50.18
2023-03-23T20:13:59.308Z,52.12
2023-03-23T20:16:26.837Z,52.32
2023-03-23T20:18:54.525Z,53.55
2023-03-23T20:21:23.023Z,54.15
2023-03-23T20:23:52.816Z,54.27
2023-03-23T20:26:20.894Z,54.21
2023-03-23T20:28:48.038Z,52.59
2023-03-23T20:31:23.340Z,52.27
2023-03-23T20:34:00.085Z,54.38
2023-03-23T20:36:35.965Z,52.51
2023-03-23T20:39:08.433Z,53.26
2023-03-23T20:41:36.424Z,56.08
2023-03-23T20:44:04.200Z,54.75
2023-03-23T20:46:31.882Z,54.33
2023-03-23T20:48:58.965Z,55.12
2023-03-23T20:51:25.874Z,55.00
2023-03-23T20:53:53.500Z,58.24
2023-03-23T20:56:20.536Z,58.81
2023-03-23T20:58:47.901Z,59.49
2023-03-23T21:01:15.593Z,54.82
2023-03-23T21:03:44.182Z,57.46
2023-03-23T21:06:12.234Z,57.10
2023-03-23T21:08:41.033Z,57.00
2023-03-23T21:11:16.634Z,56.62
2023-03-23T21:13:44.942Z,58.98
2023-03-23T21:16:12.237Z,56.61
2023-03-23T21:18:39.718Z,56.17
2023-03-23T21:21:12.367Z,55.49
2023-03-23T21:23:47.389Z,56.02
2023-03-23T21:26:17.839Z,56.90
2023-03-23T21:28:46.962Z,57.85
2023-03-23T21:31:15.276Z,59.88
2023-03-23T21:33:42.308Z,56.73
2023-03-23T21:36:09.965Z,58.11
2023-03-23T21:38:38.430Z,55.09
2023-03-23T21:41:14.606Z,56.31
2023-03-23T21:43:41.993Z,60.00
2023-03-23T21:46:09.944Z,56.96
2023-03-23T21:48:38.931Z,55.59
2023-03-23T21:51:12.761Z,57.12
2023-03-23T21:53:40.019Z,56.64
2023-03-23T21:56:09.888Z,57.86
2023-03-23T21:58:37.758Z,59.90
2023-03-23T22:01:06.134Z,59.01
2023-03-23T22:03:33.299Z,55.58
2023-03-23T22:06:09.843Z,57.23
2023-03-23T22:08:39.842Z,55.62
2023-03-23T22:11:11.044Z,54.47
2023-03-23T22:13:39.288Z,55.32
2023-03-23T22:16:10.378Z,54.43
2023-03-23T22:18:39.524Z,53.56
2023-03-23T22:21:07.309Z,54.42
2023-03-23T22:23:35.029Z,56.66
2023-03-23T22:26:02.405Z,54.63
2023-03-23T22:28:31.078Z,57.50
2023-03-23T22:31:07.808Z,58.49
2023-03-23T22:33:36.207Z,55.32
2023-03-23T22:36:06.505Z,54.12
2023-03-23T22:38:37.978Z,53.28
2023-03-23T22:41:07.742Z,52.96
2023-03-23T22:43:36.253Z,53.46
2023-03-23T22:46:04.270Z,55.97
2023-03-23T22:48:31.823Z,54.65
2023-03-23T22:50:59.235Z,55.50
2023-03-23T22:53:26.640Z,54.05
2023-03-23T22:55:56.556Z,55.05
2023-03-23T22:58:25.516Z,57.78
2023-03-23T23:00:58.696Z,60.17
2023-03-23T23:03:26.956Z,59.20
2023-03-23T23:05:55.670Z,59.50
2023-03-23T23:08:24.145Z,58.29
2023-03-23T23:10:54.560Z,56.79
2023-03-23T23:13:22.015Z,58.70
2023-03-23T23:15:52.118Z,58.77
2023-03-23T23:18:20.728Z,56.70
2023-03-23T23:20:53.056Z,58.45
2023-03-23T23:23:20.655Z,58.09
2023-03-23T23:25:49.728Z,56.71
2023-03-23T23:28:17.147Z,56.32
2023-03-23T23:30:44.468Z,56.25
2023-03-23T23:33:11.733Z,55.93
2023-03-23T23:35:39.902Z,54.98
2023-03-23T23:38:09.786Z,55.12
2023-03-23T23:40:36.727Z,55.54
2023-03-23T23:43:04.592Z,55.13
2023-03-23T23:45:31.827Z,54.45
2023-03-23T23:47:59.648Z,54.56
2023-03-23T23:50:28.279Z,54.27
2023-03-23T23:52:55.227Z,54.03
2023-03-23T23:55:22.358Z,53.54
2023-03-23T23:57:50.126Z,54.12
